sensor_id;sensor_type;location;lat;lon;timestamp;pressure;altitude;pressure_sealevel;temperature;humidity
60852;BME280;48553;50.766;2.900;2023-04-28T14:22:26;100574.25;;;14.95;79.33
60852;BME280;48553;50.766;2.900;2023-04-28T14:25:27;100580.56;;;14.96;79.51
60852;BME280;48553;50.766;2.900;2023-04-28T14:28:27;100577.75;;;14.92;79.75
60852;BME280;48553;50.766;2.900;2023-04-28T14:31:28;100572.25;;;14.92;79.74
60852;BME280;48553;50.766;2.900;2023-04-28T14:34:29;100573.03;;;14.93;79.42
60852;BME280;48553;50.766;2.900;2023-04-28T14:37:31;100566.72;;;14.92;79.81
60852;BME280;48553;50.766;2.900;2023-04-28T14:40:32;100569.06;;;14.90;79.87
60852;BME280;48553;50.766;2.900;2023-04-28T14:43:32;100573.72;;;14.86;80.34
60852;BME280;48553;50.766;2.900;2023-04-28T14:46:33;100567.09;;;14.91;79.70
60852;BME280;48553;50.766;2.900;2023-04-28T14:49:33;100567.16;;;14.94;80.91
60852;BME280;48553;50.766;2.900;2023-04-28T14:52:34;100563.63;;;14.97;80.39
60852;BME280;48553;50.766;2.900;2023-04-28T14:55:34;100570.75;;;14.98;80.62
60852;BME280;48553;50.766;2.900;2023-04-28T14:58:35;100564.78;;;14.96;80.89
60852;BME280;48553;50.766;2.900;2023-04-28T15:01:35;100578.97;;;14.95;80.82
60852;BME280;48553;50.766;2.900;2023-04-28T15:04:37;100567.50;;;14.93;80.89
60852;BME280;48553;50.766;2.900;2023-04-28T15:07:38;100567.88;;;14.91;80.83
60852;BME280;48553;50.766;2.900;2023-04-28T15:10:38;100570.28;;;14.93;80.95
60852;BME280;48553;50.766;2.900;2023-04-28T15:13:39;100569.91;;;14.94;80.91
60852;BME280;48553;50.766;2.900;2023-04-28T15:16:40;100572.28;;;14.96;80.30
60852;BME280;48553;50.766;2.900;2023-04-28T15:19:40;100578.59;;;14.96;80.26
60852;BME280;48553;50.766;2.900;2023-04-28T15:22:40;100586.41;;;14.91;80.58
60852;BME280;48553;50.766;2.900;2023-04-28T15:25:43;100578.91;;;14.91;80.28
60852;BME280;48553;50.766;2.900;2023-04-28T15:28:44;100587.16;;;14.88;80.97
60852;BME280;48553;50.766;2.900;2023-04-28T15:31:44;100590.25;;;14.86;80.55
60852;BME280;48553;50.766;2.900;2023-04-28T15:34:45;100598.13;;;14.84;80.67
60852;BME280;48553;50.766;2.900;2023-04-28T15:37:46;100595.72;;;14.82;80.83
60852;BME280;48553;50.766;2.900;2023-04-28T15:40:47;100596.81;;;14.78;80.81
60852;BME280;48553;50.766;2.900;2023-04-28T15:43:48;100595.25;;;14.77;80.76
60852;BME280;48553;50.766;2.900;2023-04-28T15:46:49;100594.44;;;14.76;80.89
60852;BME280;48553;50.766;2.900;2023-04-28T15:49:51;100598.75;;;14.74;80.99
60852;BME280;48553;50.766;2.900;2023-04-28T15:52:52;100609.78;;;14.74;80.84
60852;BME280;48553;50.766;2.900;2023-04-28T15:55:52;100611.28;;;14.71;81.14
60852;BME280;48553;50.766;2.900;2023-04-28T15:58:53;100611.28;;;14.71;81.04
60852;BME280;48553;50.766;2.900;2023-04-28T16:01:54;100616.81;;;14.71;81.27
60852;BME280;48553;50.766;2.900;2023-04-28T16:04:55;100610.50;;;14.71;81.11
60852;BME280;48553;50.766;2.900;2023-04-28T16:07:55;100606.88;;;14.67;81.15
60852;BME280;48553;50.766;2.900;2023-04-28T16:10:56;100602.19;;;14.67;80.98
60852;BME280;48553;50.766;2.900;2023-04-28T16:13:57;100607.31;;;14.69;81.10
60852;BME280;48553;50.766;2.900;2023-04-28T16:16:57;100606.50;;;14.68;81.11
60852;BME280;48553;50.766;2.900;2023-04-28T16:19:58;100610.06;;;14.69;81.26
60852;BME280;48553;50.766;2.900;2023-04-28T16:22:58;100601.44;;;14.70;81.05
60852;BME280;48553;50.766;2.900;2023-04-28T16:25:59;100604.19;;;14.70;81.03
60852;BME280;48553;50.766;2.900;2023-04-28T16:28:59;100608.91;;;14.70;81.21
60852;BME280;48553;50.766;2.900;2023-04-28T16:32:00;100625.47;;;14.70;80.94
60852;BME280;48553;50.766;2.900;2023-04-28T16:35:00;100617.53;;;14.68;81.29
60852;BME280;48553;50.766;2.900;2023-04-28T16:38:01;100623.50;;;14.70;81.06
60852;BME280;48553;50.766;2.900;2023-04-28T16:41:01;100623.13;;;14.72;81.51
60852;BME280;48553;50.766;2.900;2023-04-28T16:44:02;100625.50;;;14.73;82.47
60852;BME280;48553;50.766;2.900;2023-04-28T16:47:02;100618.47;;;14.76;82.24
60852;BME280;48553;50.766;2.900;2023-04-28T16:50:03;100622.47;;;14.78;81.68
60852;BME280;48553;50.766;2.900;2023-04-28T16:53:04;100624.41;;;14.78;82.41
60852;BME280;48553;50.766;2.900;2023-04-28T16:56:05;100630.78;;;14.82;81.25
60852;BME280;48553;50.766;2.900;2023-04-28T16:59:05;100645.03;;;14.84;81.69
60852;BME280;48553;50.766;2.900;2023-04-28T17:02:06;100634.41;;;14.86;81.76
60852;BME280;48553;50.766;2.900;2023-04-28T17:05:07;100639.88;;;14.82;81.62
60852;BME280;48553;50.766;2.900;2023-04-28T17:08:08;100633.91;;;14.80;82.07
60852;BME280;48553;50.766;2.900;2023-04-28T17:11:09;100636.66;;;14.80;81.37
60852;BME280;48553;50.766;2.900;2023-04-28T17:14:09;100634.66;;;14.77;81.30
60852;BME280;48553;50.766;2.900;2023-04-28T17:17:10;100628.69;;;14.75;81.28
60852;BME280;48553;50.766;2.900;2023-04-28T17:20:10;100624.38;;;14.74;81.42
60852;BME280;48553;50.766;2.900;2023-04-28T17:23:15;100641.94;;;14.66;82.05
60852;BME280;48553;50.766;2.900;2023-04-28T17:26:15;100644.25;;;14.64;81.72
60852;BME280;48553;50.766;2.900;2023-04-28T17:29:16;100652.09;;;14.62;81.72
60852;BME280;48553;50.766;2.900;2023-04-28T17:32:17;100656.84;;;14.61;81.75
60852;BME280;48553;50.766;2.900;2023-04-28T17:35:17;100652.50;;;14.60;81.97
60852;BME280;48553;50.766;2.900;2023-04-28T17:38:18;100658.72;;;14.57;82.00
60852;BME280;48553;50.766;2.900;2023-04-28T17:41:18;100657.50;;;14.55;81.96
60852;BME280;48553;50.766;2.900;2023-04-28T17:44:19;100666.09;;;14.53;82.04
60852;BME280;48553;50.766;2.900;2023-04-28T17:47:20;100669.59;;;14.50;82.47
60852;BME280;48553;50.766;2.900;2023-04-28T17:50:20;100672.34;;;14.50;82.10
60852;BME280;48553;50.766;2.900;2023-04-28T17:53:21;100683.81;;;14.52;81.95
60852;BME280;48553;50.766;2.900;2023-04-28T17:56:21;100696.38;;;14.50;81.95
60852;BME280;48553;50.766;2.900;2023-04-28T17:59:22;100693.63;;;14.50;82.02
60852;BME280;48553;50.766;2.900;2023-04-28T18:02:22;100700.28;;;14.49;81.87
60852;BME280;48553;50.766;2.900;2023-04-28T18:05:23;100699.03;;;14.46;82.08
60852;BME280;48553;50.766;2.900;2023-04-28T18:08:25;100701.38;;;14.44;82.11
60852;BME280;48553;50.766;2.900;2023-04-28T18:11:25;100703.34;;;14.44;82.00
60852;BME280;48553;50.766;2.900;2023-04-28T18:14:27;100706.81;;;14.40;81.87
60852;BME280;48553;50.766;2.900;2023-04-28T18:17:27;100703.53;;;14.35;82.19
60852;BME280;48553;50.766;2.900;2023-04-28T18:20:28;100716.63;;;14.38;81.87
60852;BME280;48553;50.766;2.900;2023-04-28T18:23:28;100715.00;;;14.37;81.87
60852;BME280;48553;50.766;2.900;2023-04-28T18:26:29;100727.13;;;14.32;82.25
60852;BME280;48553;50.766;2.900;2023-04-28T18:29:30;100729.44;;;14.30;82.02
60852;BME280;48553;50.766;2.900;2023-04-28T18:32:30;100730.19;;;14.27;82.19
60852;BME280;48553;50.766;2.900;2023-04-28T18:35:33;100743.16;;;14.27;82.29
60852;BME280;48553;50.766;2.900;2023-04-28T18:38:33;100741.56;;;14.26;82.22
60852;BME280;48553;50.766;2.900;2023-04-28T18:41:35;100742.38;;;14.26;82.24
60852;BME280;48553;50.766;2.900;2023-04-28T18:44:36;100747.00;;;14.22;82.44
60852;BME280;48553;50.766;2.900;2023-04-28T18:47:36;100754.09;;;14.23;82.22
60852;BME280;48553;50.766;2.900;2023-04-28T18:50:37;100753.66;;;14.21;82.55
60852;BME280;48553;50.766;2.900;2023-04-28T18:53:37;100736.34;;;14.20;82.25
60852;BME280;48553;50.766;2.900;2023-04-28T18:56:38;100742.63;;;14.21;82.25
60852;BME280;48553;50.766;2.900;2023-04-28T18:59:38;100748.88;;;14.18;82.51
60852;BME280;48553;50.766;2.900;2023-04-28T19:02:39;100756.34;;;14.17;82.58
60852;BME280;48553;50.766;2.900;2023-04-28T19:05:42;100759.13;;;14.17;82.46
60852;BME280;48553;50.766;2.900;2023-04-28T19:08:43;100766.94;;;14.15;82.52
60852;BME280;48553;50.766;2.900;2023-04-28T19:11:43;100760.25;;;14.16;82.41
60852;BME280;48553;50.766;2.900;2023-04-28T19:14:44;100772.00;;;14.13;82.64
60852;BME280;48553;50.766;2.900;2023-04-28T19:17:44;100786.59;;;14.14;82.33
60852;BME280;48553;50.766;2.900;2023-04-28T19:20:45;100781.00;;;14.10;82.32
60852;BME280;48553;50.766;2.900;2023-04-28T19:23:45;100797.56;;;14.10;82.10
60852;BME280;48553;50.766;2.900;2023-04-28T19:26:47;100797.91;;;14.09;82.00
60852;BME280;48553;50.766;2.900;2023-04-28T19:29:48;100812.41;;;14.06;81.82
60852;BME280;48553;50.766;2.900;2023-04-28T19:32:48;100819.50;;;14.07;81.64
60852;BME280;48553;50.766;2.900;2023-04-28T19:35:49;100815.78;;;13.99;81.90
60852;BME280;48553;50.766;2.900;2023-04-28T19:38:50;100813.38;;;13.97;81.89
60852;BME280;48553;50.766;2.900;2023-04-28T19:41:51;100819.97;;;13.93;82.19
60852;BME280;48553;50.766;2.900;2023-04-28T19:44:55;100831.44;;;13.95;81.95
60852;BME280;48553;50.766;2.900;2023-04-28T19:47:55;100836.84;;;13.91;81.94
60852;BME280;48553;50.766;2.900;2023-04-28T19:50:56;100837.22;;;13.90;81.76
60852;BME280;48553;50.766;2.900;2023-04-28T19:53:57;100845.72;;;13.85;82.18
60852;BME280;48553;50.766;2.900;2023-04-28T19:56:57;100845.38;;;13.86;81.62
60852;BME280;48553;50.766;2.900;2023-04-28T19:59:58;100846.44;;;13.82;81.94
60852;BME280;48553;50.766;2.900;2023-04-28T20:03:00;100844.03;;;13.80;81.75
60852;BME280;48553;50.766;2.900;2023-04-28T20:06:00;100847.53;;;13.77;81.72
60852;BME280;48553;50.766;2.900;2023-04-28T20:09:01;100853.38;;;13.75;81.81
60852;BME280;48553;50.766;2.900;2023-04-28T20:12:06;100861.19;;;13.73;81.88
60852;BME280;48553;50.766;2.900;2023-04-28T20:15:08;100868.56;;;13.69;81.77
60852;BME280;48553;50.766;2.900;2023-04-28T20:18:08;100871.69;;;13.68;81.52
60852;BME280;48553;50.766;2.900;2023-04-28T20:21:09;100867.31;;;13.67;81.37
60852;BME280;48553;50.766;2.900;2023-04-28T20:24:09;100869.63;;;13.65;81.33
60852;BME280;48553;50.766;2.900;2023-04-28T20:27:10;100873.44;;;13.60;81.30
60852;BME280;48553;50.766;2.900;2023-04-28T20:30:11;100874.59;;;13.59;81.44
60852;BME280;48553;50.766;2.900;2023-04-28T20:33:12;100863.91;;;13.57;81.33
60852;BME280;48553;50.766;2.900;2023-04-28T20:36:13;100864.28;;;13.56;81.33
60852;BME280;48553;50.766;2.900;2023-04-28T20:39:14;100867.41;;;13.54;81.30
60852;BME280;48553;50.766;2.900;2023-04-28T20:42:14;100870.16;;;13.54;81.35
60852;BME280;48553;50.766;2.900;2023-04-28T20:45:16;100869.25;;;13.50;81.52
60852;BME280;48553;50.766;2.900;2023-04-28T20:48:17;100871.56;;;13.48;81.88
60852;BME280;48553;50.766;2.900;2023-04-28T20:51:19;100873.50;;;13.48;81.75
60852;BME280;48553;50.766;2.900;2023-04-28T20:54:19;100875.09;;;13.49;81.88
60852;BME280;48553;50.766;2.900;2023-04-28T20:57:20;100877.78;;;13.45;81.99
60852;BME280;48553;50.766;2.900;2023-04-28T21:00:20;100875.34;;;13.44;81.99
60852;BME280;48553;50.766;2.900;2023-04-28T21:03:21;100871.81;;;13.43;81.94
60852;BME280;48553;50.766;2.900;2023-04-28T21:06:22;100872.97;;;13.42;82.46
60852;BME280;48553;50.766;2.900;2023-04-28T21:09:23;100867.47;;;13.42;82.11
60852;BME280;48553;50.766;2.900;2023-04-28T21:12:24;100874.91;;;13.42;81.99
60852;BME280;48553;50.766;2.900;2023-04-28T21:15:25;100872.53;;;13.40;82.21
60852;BME280;48553;50.766;2.900;2023-04-28T21:18:25;100877.66;;;13.42;82.12
60852;BME280;48553;50.766;2.900;2023-04-28T21:21:26;100876.78;;;13.38;82.31
60852;BME280;48553;50.766;2.900;2023-04-28T21:24:26;100875.97;;;13.37;82.26
60852;BME280;48553;50.766;2.900;2023-04-28T21:27:26;100881.84;;;13.35;82.36
60852;BME280;48553;50.766;2.900;2023-04-28T21:30:27;100871.28;;;13.38;82.19
60852;BME280;48553;50.766;2.900;2023-04-28T21:33:28;100879.44;;;13.34;82.31
60852;BME280;48553;50.766;2.900;2023-04-28T21:36:29;100874.97;;;13.29;82.33
60852;BME280;48553;50.766;2.900;2023-04-28T21:39:29;100881.28;;;13.30;82.40
60852;BME280;48553;50.766;2.900;2023-04-28T21:42:30;100886.00;;;13.29;82.22
60852;BME280;48553;50.766;2.900;2023-04-28T21:45:31;100882.75;;;13.27;82.17
60852;BME280;48553;50.766;2.900;2023-04-28T21:48:31;100884.53;;;13.20;82.28
60852;BME280;48553;50.766;2.900;2023-04-28T21:51:32;100869.47;;;13.17;82.12
60852;BME280;48553;50.766;2.900;2023-04-28T21:54:32;100871.44;;;13.16;82.04
60852;BME280;48553;50.766;2.900;2023-04-28T21:57:33;100868.59;;;13.13;81.94
60852;BME280;48553;50.766;2.900;2023-04-28T22:00:37;100871.69;;;13.11;81.82
60852;BME280;48553;50.766;2.900;2023-04-28T22:03:38;100882.59;;;13.08;81.80
60852;BME280;48553;50.766;2.900;2023-04-28T22:06:39;100887.88;;;13.01;81.93
60852;BME280;48553;50.766;2.900;2023-04-28T22:09:39;100885.13;;;13.01;82.03
60852;BME280;48553;50.766;2.900;2023-04-28T22:12:41;100887.88;;;13.01;81.63
60852;BME280;48553;50.766;2.900;2023-04-28T22:15:41;100900.06;;;13.00;81.54
60852;BME280;48553;50.766;2.900;2023-04-28T22:18:42;100897.31;;;13.00;81.55
60852;BME280;48553;50.766;2.900;2023-04-28T22:21:43;100895.94;;;12.93;81.63
60852;BME280;48553;50.766;2.900;2023-04-28T22:24:44;100888.41;;;12.90;81.51
60852;BME280;48553;50.766;2.900;2023-04-28T22:27:45;100894.69;;;12.91;81.64
60852;BME280;48553;50.766;2.900;2023-04-28T22:30:45;100891.94;;;12.91;81.57
60852;BME280;48553;50.766;2.900;2023-04-28T22:33:46;100897.31;;;12.87;81.48
60852;BME280;48553;50.766;2.900;2023-04-28T22:36:47;100908.00;;;12.89;81.50
60852;BME280;48553;50.766;2.900;2023-04-28T22:39:47;100894.94;;;12.86;81.55
60852;BME280;48553;50.766;2.900;2023-04-28T22:42:48;100911.66;;;12.81;81.58
60852;BME280;48553;50.766;2.900;2023-04-28T22:45:48;100904.91;;;12.78;81.67
60852;BME280;48553;50.766;2.900;2023-04-28T22:48:49;100909.28;;;12.79;81.41
60852;BME280;48553;50.766;2.900;2023-04-28T22:51:49;100918.19;;;12.76;81.51
60852;BME280;48553;50.766;2.900;2023-04-28T22:54:50;100917.78;;;12.74;81.38
60852;BME280;48553;50.766;2.900;2023-04-28T22:57:50;100923.84;;;12.67;81.59
60852;BME280;48553;50.766;2.900;2023-04-28T23:00:50;100928.66;;;12.70;81.29
60852;BME280;48553;50.766;2.900;2023-04-28T23:03:51;100930.16;;;12.68;81.21
60852;BME280;48553;50.766;2.900;2023-04-28T23:06:51;100924.19;;;12.66;81.26
60852;BME280;48553;50.766;2.900;2023-04-28T23:09:52;100928.78;;;12.62;81.31
60852;BME280;48553;50.766;2.900;2023-04-28T23:12:52;100931.19;;;12.63;81.16
60852;BME280;48553;50.766;2.900;2023-04-28T23:15:57;100932.47;;;12.53;81.38
60852;BME280;48553;50.766;2.900;2023-04-28T23:18:58;100937.13;;;12.53;81.36
60852;BME280;48553;50.766;2.900;2023-04-28T23:21:58;100938.97;;;12.49;81.43
60852;BME280;48553;50.766;2.900;2023-04-28T23:24:58;100946.41;;;12.48;81.46
60852;BME280;48553;50.766;2.900;2023-04-28T23:27:59;100947.22;;;12.49;81.67
60852;BME280;48553;50.766;2.900;2023-04-28T23:30:59;100951.13;;;12.48;81.69
60852;BME280;48553;50.766;2.900;2023-04-28T23:34:00;100945.97;;;12.46;81.72
60852;BME280;48553;50.766;2.900;2023-04-28T23:37:00;100949.06;;;12.45;81.83
60852;BME280;48553;50.766;2.900;2023-04-28T23:40:01;100949.88;;;12.45;81.70
60852;BME280;48553;50.766;2.900;2023-04-28T23:43:02;100960.41;;;12.43;81.02
60852;BME280;48553;50.766;2.900;2023-04-28T23:46:03;100964.72;;;12.44;81.49
60852;BME280;48553;50.766;2.900;2023-04-28T23:49:03;100968.50;;;12.40;82.02
60852;BME280;48553;50.766;2.900;2023-04-28T23:52:04;100965.75;;;12.40;81.76
60852;BME280;48553;50.766;2.900;2023-04-28T23:55:08;100972.75;;;12.37;81.84
60852;BME280;48553;50.766;2.900;2023-04-28T23:58:09;100975.16;;;12.39;81.74
